Daviess County Airport


Codes: KDCY/
Name: Daviess County Airport
City: Washington
Country: United States
Elevation: 473 ft.

Photos at Daviess County Airport


   Photos courtesy of SpottingLog. You can add your own sightings and photos by signing up for a free trial today.



No photos found.

Weather at Daviess County Airport


Time (UTC)DescriptionTempratureWindCloud coverageVisibilityPressureHumidity
16-Jun-2024 09:00Clear Sky18°C9 mph, SE0%10000m1015hPa69%
16-Jun-2024 12:00Few Clouds18°C7 mph, SE11%10000m1015hPa71%
16-Jun-2024 15:00Scattered Clouds23°C7 mph, SE25%10000m1016hPa64%
16-Jun-2024 18:00Few Clouds30°C9 mph, S21%10000m1015hPa62%
16-Jun-2024 21:00Clear Sky32°C9 mph, S1%10000m1014hPa59%
17-Jun-2024 00:00Light Rain28°C9 mph, S24%10000m1013hPa78%
17-Jun-2024 03:00Light Rain24°C9 mph, S35%10000m1015hPa88%
17-Jun-2024 06:00Few Clouds22°C9 mph, S17%10000m1015hPa93%
17-Jun-2024 09:00Clear Sky20°C9 mph, S0%10000m1016hPa92%
17-Jun-2024 12:00Clear Sky22°C7 mph, S1%10000m1017hPa89%
17-Jun-2024 15:00Clear Sky27°C9 mph, S3%10000m1017hPa75%
17-Jun-2024 18:00Scattered Clouds30°C11 mph, S50%10000m1016hPa67%
17-Jun-2024 21:00Light Rain31°C13 mph, S53%10000m1015hPa66%
18-Jun-2024 00:00Light Rain26°C13 mph, SW63%10000m1016hPa83%
18-Jun-2024 03:00Light Rain23°C7 mph, S100%10000m1018hPa91%
18-Jun-2024 06:00Light Rain22°C9 mph, SE100%10000m1017hPa90%
18-Jun-2024 09:00Light Rain22°C7 mph, S100%10000m1018hPa94%
18-Jun-2024 12:00Overcast Clouds22°C7 mph, SE100%10000m1019hPa94%
18-Jun-2024 15:00Overcast Clouds27°C7 mph, S100%10000m1019hPa78%
18-Jun-2024 18:00Light Rain29°C9 mph, S99%10000m1019hPa67%
18-Jun-2024 21:00Broken Clouds31°C11 mph, S82%10000m1018hPa62%
19-Jun-2024 00:00Light Rain27°C7 mph, S87%10000m1019hPa81%
19-Jun-2024 03:00Overcast Clouds24°C7 mph, S100%10000m1020hPa86%
19-Jun-2024 06:00Overcast Clouds23°C7 mph, S100%10000m1020hPa88%
19-Jun-2024 09:00Overcast Clouds22°C4 mph, SE100%10000m1021hPa79%
19-Jun-2024 12:00Overcast Clouds22°C4 mph, SE100%10000m1023hPa82%
19-Jun-2024 15:00Overcast Clouds28°C7 mph, SE100%10000m1023hPa68%
19-Jun-2024 18:00Overcast Clouds29°C4 mph, S98%10000m1023hPa56%
19-Jun-2024 21:00Broken Clouds31°C4 mph, S81%10000m1022hPa50%
20-Jun-2024 00:00Broken Clouds29°C2 mph, SE83%10000m1022hPa64%
20-Jun-2024 03:00Overcast Clouds24°C2 mph, E86%10000m1023hPa71%
20-Jun-2024 06:00Overcast Clouds23°C4 mph, NE88%10000m1023hPa75%
20-Jun-2024 09:00Overcast Clouds22°C4 mph, NE97%10000m1024hPa80%
20-Jun-2024 12:00Overcast Clouds23°C4 mph, NE98%10000m1024hPa85%
20-Jun-2024 15:00Overcast Clouds28°C4 mph, NE98%10000m1025hPa70%
20-Jun-2024 18:00Broken Clouds32°C4 mph, N80%10000m1023hPa55%
20-Jun-2024 21:00Overcast Clouds33°C4 mph, NE91%10000m1022hPa51%
21-Jun-2024 00:00Overcast Clouds29°C7 mph, SE94%10000m1022hPa73%
21-Jun-2024 03:00Broken Clouds24°C7 mph, SE84%10000m1022hPa77%
21-Jun-2024 06:00Broken Clouds23°C2 mph, SE73%10000m1022hPa82%